Time;durP1;ratioP1;P1;durP2;ratioP2;P2;SDS_P1;SDS_P2;PMS_P1;PMS_P2;Temp;Humidity;BMP_temperature;BMP_pressure;BME280_temperature;BME280_humidity;BME280_pressure;Samples;Min_cycle;Max_cycle;Signal;HPM_P1;HPM_P2
2022/03/11 00:02:04;;;;;;;;;;;;;;;-8.41;44.51;100830.31;4917719;29;19931;-63
2022/03/11 00:04:29;;;;;;;;;;;;;;;-8.37;44.12;100838.66;4916950;29;19974;-61
2022/03/11 00:06:55;;;;;;;;;;;;;;;-8.42;44.96;100827.81;4916538;29;19935;-62
2022/03/11 00:09:20;;;;;;;;;;;;;;;-8.43;44.49;100832.13;4917354;29;19934;-62
2022/03/11 00:11:46;;;;;;;;;;;;;;;-8.45;44.47;100831.38;4917933;29;19930;-63
2022/03/11 00:14:11;;;;;;;;;;;;;;;-8.50;45.10;100830.75;4916944;29;20021;-62
2022/03/11 00:16:37;;;;;;;;;;;;;;;-8.55;44.85;100828.44;4917273;29;19923;-61
2022/03/11 00:19:03;;;;;;;;;;;;;;;-8.50;45.45;100828.19;4917126;29;20308;-62
2022/03/11 00:21:30;;;;;;;;;;;;;;;-8.46;45.23;100824.56;4916229;29;19973;-62
2022/03/11 00:23:56;;;;;;;;;;;;;;;-8.47;44.09;100828.88;4917130;29;19978;-62
2022/03/11 00:26:21;;;;;;;;;;;;;;;-8.40;44.89;100824.25;4909880;29;20034;-61
2022/03/11 00:28:47;;;;;;;;;;;;;;;-8.36;44.75;100824.88;4899535;29;20333;-63
2022/03/11 00:31:12;;;;;;;;;;;;;;;-8.40;44.89;100816.53;4897187;29;19934;-62
2022/03/11 00:33:38;;;;;;;;;;;;;;;-8.37;44.19;100823.22;4898098;29;20425;-61
2022/03/11 00:36:04;;;;;;;;;;;;;;;-8.34;43.53;100818.75;4897416;29;19923;-61
2022/03/11 00:38:29;;;;;;;;;;;;;;;-8.34;43.67;100818.75;4914468;29;20066;-62
2022/03/11 00:40:56;;;;;;;;;;;;;;;-8.34;45.10;100817.91;4917292;29;20029;-62
2022/03/11 00:43:25;;;;;;;;;;;;;;;-8.36;45.26;100812.00;4915865;29;20444;-62
2022/03/11 00:45:52;;;;;;;;;;;;;;;-8.44;44.42;100809.91;4916481;29;20364;-62
2022/03/11 00:48:17;;;;;;;;;;;;;;;-8.47;45.24;100805.75;4898432;29;19939;-63
2022/03/11 00:50:43;;;;;;;;;;;;;;;-8.48;45.85;100811.78;4907725;29;19931;-62
2022/03/11 00:53:09;;;;;;;;;;;;;;;-8.51;46.07;100805.97;4915665;29;19931;-62
2022/03/11 00:55:35;;;;;;;;;;;;;;;-8.56;45.05;100807.94;4916564;29;19931;-62
2022/03/11 00:58:01;;;;;;;;;;;;;;;-8.58;45.60;100805.47;4902076;29;20309;-62
2022/03/11 01:00:26;;;;;;;;;;;;;;;-8.60;45.97;100796.16;4904693;29;19934;-62
2022/03/11 01:02:52;;;;;;;;;;;;;;;-8.58;45.26;100797.75;4905391;29;19960;-63
2022/03/11 01:05:17;;;;;;;;;;;;;;;-8.61;46.60;100797.91;4880596;29;19927;-61
2022/03/11 01:07:43;;;;;;;;;;;;;;;-8.62;45.17;100785.97;4896635;29;19935;-63
2022/03/11 01:10:10;;;;;;;;;;;;;;;-8.63;46.19;100791.19;4897424;29;19929;-61
2022/03/11 01:12:37;;;;;;;;;;;;;;;-8.63;46.26;100783.47;4897565;29;19932;-62
2022/03/11 01:15:03;;;;;;;;;;;;;;;-8.60;46.15;100785.88;4897539;29;19927;-62
2022/03/11 01:17:29;;;;;;;;;;;;;;;-8.56;45.77;100789.94;4896212;29;19938;-63
2022/03/11 01:19:54;;;;;;;;;;;;;;;-8.62;46.09;100785.97;4897226;29;19927;-62
2022/03/11 01:22:20;;;;;;;;;;;;;;;-8.60;45.66;100793.59;4898568;29;19987;-61
2022/03/11 01:24:46;;;;;;;;;;;;;;;-8.62;45.20;100788.53;4914553;29;19982;-64
2022/03/11 01:27:11;;;;;;;;;;;;;;;-8.57;46.00;100791.69;4916247;29;19930;-65
2022/03/11 01:29:37;;;;;;;;;;;;;;;-8.55;45.87;100799.34;4914897;29;19973;-63
2022/03/11 01:32:03;;;;;;;;;;;;;;;-8.57;46.56;100796.00;4914655;29;19991;-61
2022/03/11 01:34:29;;;;;;;;;;;;;;;-8.58;45.43;100787.47;4900933;29;19928;-62
2022/03/11 01:36:54;;;;;;;;;;;;;;;-8.58;45.53;100790.03;4897169;29;20349;-63
2022/03/11 01:39:20;;;;;;;;;;;;;;;-8.63;45.77;100792.03;4896906;29;19928;-65
2022/03/11 01:41:45;;;;;;;;;;;;;;;-8.65;45.04;100790.44;4880369;29;20433;-64
2022/03/11 01:44:11;;;;;;;;;;;;;;;-8.65;46.10;100787.88;4896814;29;19939;-61
2022/03/11 01:46:37;;;;;;;;;;;;;;;-8.68;46.15;100783.72;4897148;29;19934;-62
2022/03/11 01:49:05;;;;;;;;;;;;;;;-8.79;46.46;100789.44;4888203;29;19931;-63
2022/03/11 01:51:31;;;;;;;;;;;;;;;-8.81;46.69;100787.84;4914455;29;19934;-61
2022/03/11 01:53:57;;;;;;;;;;;;;;;-8.87;46.86;100791.56;4907847;29;19932;-62
2022/03/11 01:56:23;;;;;;;;;;;;;;;-8.89;45.63;100785.66;4897298;29;19933;-62
2022/03/11 01:58:50;;;;;;;;;;;;;;;-8.82;45.93;100791.28;4912912;29;19935;-61
2022/03/11 02:01:16;;;;;;;;;;;;;;;-8.76;46.33;100785.88;4906032;29;19935;-60
2022/03/11 02:03:41;;;;;;;;;;;;;;;-8.84;46.61;100785.44;4896034;29;19943;-64
2022/03/11 02:06:07;;;;;;;;;;;;;;;-8.81;45.45;100786.09;4896974;29;20342;-61
2022/03/11 02:08:35;;;;;;;;;;;;;;;-8.76;45.33;100788.44;4895248;29;19931;-60
2022/03/11 02:11:02;;;;;;;;;;;;;;;-8.71;46.45;100787.25;4897120;29;19927;-61
2022/03/11 02:13:27;;;;;;;;;;;;;;;-8.76;46.42;100785.88;4896745;29;20395;-61
2022/03/11 02:15:53;;;;;;;;;;;;;;;-8.83;46.49;100780.19;4895661;29;19928;-61
2022/03/11 02:18:19;;;;;;;;;;;;;;;-8.81;46.43;100777.56;4898697;29;19931;-62
2022/03/11 02:20:46;;;;;;;;;;;;;;;-8.81;45.17;100775.00;4901062;29;20290;-62
2022/03/11 02:23:12;;;;;;;;;;;;;;;-8.86;46.20;100776.97;4900618;29;19974;-61
2022/03/11 02:25:39;;;;;;;;;;;;;;;-8.80;46.29;100780.03;4910982;29;20381;-61
2022/03/11 02:28:05;;;;;;;;;;;;;;;-8.87;45.55;100772.75;4918117;29;20396;-62
2022/03/11 02:30:30;;;;;;;;;;;;;;;-8.92;46.35;100772.97;4919120;29;19975;-61
2022/03/11 02:32:56;;;;;;;;;;;;;;;-8.92;46.78;100776.34;4919199;29;19931;-62
2022/03/11 02:35:21;;;;;;;;;;;;;;;-8.88;46.69;100774.47;4918265;29;19949;-61
2022/03/11 02:37:47;;;;;;;;;;;;;;;-8.89;46.43;100772.81;4918703;29;19973;-62
2022/03/11 02:40:12;;;;;;;;;;;;;;;-8.89;46.28;100777.13;4917542;29;19927;-62
2022/03/11 02:42:38;;;;;;;;;;;;;;;-8.89;45.78;100774.53;4919044;29;20025;-62
2022/03/11 02:45:05;;;;;;;;;;;;;;;-8.88;46.55;100778.78;4903460;29;19927;-62
2022/03/11 02:47:30;;;;;;;;;;;;;;;-8.88;45.48;100771.06;4899999;29;20286;-61
2022/03/11 02:49:56;;;;;;;;;;;;;;;-8.88;46.72;100776.19;4905991;29;19931;-61
2022/03/11 02:52:23;;;;;;;;;;;;;;;-8.92;45.38;100760.13;4919035;29;19947;-62
2022/03/11 02:54:48;;;;;;;;;;;;;;;-8.89;45.25;100759.94;4918320;29;19927;-60
2022/03/11 02:57:15;;;;;;;;;;;;;;;-8.82;44.75;100755.31;4918721;29;20018;-61
2022/03/11 02:59:42;;;;;;;;;;;;;;;-8.87;46.29;100755.56;4905832;29;19931;-61
2022/03/11 03:02:08;;;;;;;;;;;;;;;-8.92;45.30;100753.22;4900204;29;19932;-60
2022/03/11 03:04:33;;;;;;;;;;;;;;;-8.95;46.50;100755.13;4899705;29;19950;-60
2022/03/11 03:06:59;;;;;;;;;;;;;;;-9.00;45.47;100747.69;4899693;29;19974;-62
2022/03/11 03:09:24;;;;;;;;;;;;;;;-9.00;45.76;100750.25;4899226;29;19979;-62
2022/03/11 03:11:50;;;;;;;;;;;;;;;-9.02;46.12;100748.66;4914658;29;19993;-62
2022/03/11 03:14:15;;;;;;;;;;;;;;;-9.10;47.38;100753.34;4918164;29;19934;-64
2022/03/11 03:16:41;;;;;;;;;;;;;;;-9.16;47.20;100746.78;4901699;29;20025;-63
2022/03/11 03:19:06;;;;;;;;;;;;;;;-9.20;47.96;100748.69;4918134;29;19931;-63
2022/03/11 03:21:32;;;;;;;;;;;;;;;-9.30;47.36;100744.09;4918254;29;19959;-62
2022/03/11 03:23:57;;;;;;;;;;;;;;;-9.34;47.00;100747.72;4905038;29;20022;-63
2022/03/11 03:26:23;;;;;;;;;;;;;;;-9.40;47.86;100743.72;4899641;29;19974;-62
2022/03/11 03:28:49;;;;;;;;;;;;;;;-9.35;47.94;100735.78;4903331;29;19979;-63
2022/03/11 03:31:24;;;;;;;;;;;;;;;-9.27;48.56;100734.47;4916986;29;20262;-62
2022/03/11 03:33:50;;;;;;;;;;;;;;;-9.29;48.09;100736.31;4912607;29;19947;-62
2022/03/11 03:36:15;;;;;;;;;;;;;;;-9.20;47.85;100733.28;4898248;29;20402;-60
2022/03/11 03:38:41;;;;;;;;;;;;;;;-9.17;48.20;100738.25;4898978;29;19977;-60
2022/03/11 03:41:06;;;;;;;;;;;;;;;-9.14;47.58;100739.84;4898033;29;19927;-60
2022/03/11 03:43:34;;;;;;;;;;;;;;;-9.17;46.82;100727.97;4899574;29;19931;-62
2022/03/11 03:45:59;;;;;;;;;;;;;;;-9.18;46.68;100725.47;4917805;29;19927;-61
2022/03/11 03:48:25;;;;;;;;;;;;;;;-9.12;46.29;100727.72;4917880;29;20426;-63
2022/03/11 03:50:51;;;;;;;;;;;;;;;-9.09;46.45;100732.72;4916140;29;19973;-63
2022/03/11 03:53:17;;;;;;;;;;;;;;;-9.07;47.08;100732.66;4900300;29;19931;-61
2022/03/11 03:55:42;;;;;;;;;;;;;;;-9.01;46.31;100725.44;4917713;29;19927;-62
2022/03/11 03:58:08;;;;;;;;;;;;;;;-8.99;47.23;100713.34;4917112;29;19931;-61
2022/03/11 04:00:34;;;;;;;;;;;;;;;-8.92;45.98;100714.69;4897531;29;19933;-60
2022/03/11 04:02:59;;;;;;;;;;;;;;;-8.80;46.17;100718.34;4898705;29;19974;-65
2022/03/11 04:05:25;;;;;;;;;;;;;;;-8.68;45.88;100716.88;4900509;29;19941;-63
2022/03/11 04:07:52;;;;;;;;;;;;;;;-8.58;45.02;100712.91;4917538;29;19939;-61
2022/03/11 04:10:18;;;;;;;;;;;;;;;-8.39;45.31;100710.16;4917003;29;19927;-61
2022/03/11 04:12:43;;;;;;;;;;;;;;;-8.19;44.46;100713.38;4900412;29;19935;-61
2022/03/11 04:15:09;;;;;;;;;;;;;;;-8.09;44.92;100709.34;4910213;29;19950;-61
2022/03/11 04:17:35;;;;;;;;;;;;;;;-8.07;43.98;100705.78;4917606;29;20224;-62
2022/03/11 04:20:01;;;;;;;;;;;;;;;-8.06;43.07;100704.88;4916825;29;19993;-62
2022/03/11 04:22:28;;;;;;;;;;;;;;;-7.98;44.35;100712.16;4885369;29;20398;-60
2022/03/11 04:24:53;;;;;;;;;;;;;;;-7.96;43.09;100710.34;4896681;29;19932;-61
2022/03/11 04:27:19;;;;;;;;;;;;;;;-7.92;44.82;100700.69;4881287;29;19975;-64
2022/03/11 04:29:45;;;;;;;;;;;;;;;-7.91;44.23;100700.63;4902484;29;19931;-60
2022/03/11 04:32:10;;;;;;;;;;;;;;;-7.90;44.29;100704.03;4915824;29;19930;-61
2022/03/11 04:34:42;;;;;;;;;;;;;;;-7.84;43.24;100694.19;4916736;29;20448;-61
2022/03/11 04:37:08;;;;;;;;;;;;;;;-7.84;44.11;100699.34;4905906;29;19932;-63
2022/03/11 04:39:33;;;;;;;;;;;;;;;-7.79;43.79;100694.78;4895917;29;19927;-61
2022/03/11 04:41:59;;;;;;;;;;;;;;;-7.66;43.47;100694.88;4901724;29;19970;-64
2022/03/11 04:44:25;;;;;;;;;;;;;;;-7.56;44.67;100697.75;4897633;29;20412;-60
2022/03/11 04:46:50;;;;;;;;;;;;;;;-7.51;43.93;100702.66;4900972;29;19938;-62
2022/03/11 04:49:16;;;;;;;;;;;;;;;-7.43;43.90;100695.31;4893152;29;19938;-59
2022/03/11 04:51:42;;;;;;;;;;;;;;;-7.44;44.33;100698.78;4916258;29;19922;-59
2022/03/11 04:54:08;;;;;;;;;;;;;;;-7.25;42.91;100690.81;4898578;29;20010;-61
2022/03/11 04:56:34;;;;;;;;;;;;;;;-7.13;43.12;100692.66;4896557;29;19971;-60
2022/03/11 04:58:59;;;;;;;;;;;;;;;-6.97;42.81;100685.66;4899408;29;19939;-59
2022/03/11 05:01:27;;;;;;;;;;;;;;;-6.82;43.13;100689.06;4896933;29;19927;-60
2022/03/11 05:03:53;;;;;;;;;;;;;;;-6.78;41.79;100685.38;4897300;29;19938;-61
2022/03/11 05:06:18;;;;;;;;;;;;;;;-6.50;42.25;100681.06;4897686;29;19927;-62
2022/03/11 05:08:44;;;;;;;;;;;;;;;-6.40;40.58;100677.81;4902456;29;19938;-63
2022/03/11 05:11:09;;;;;;;;;;;;;;;-6.14;41.00;100682.25;4916620;29;19923;-61
2022/03/11 05:13:35;;;;;;;;;;;;;;;-5.88;40.74;100681.38;4913703;29;19978;-64
2022/03/11 05:16:01;;;;;;;;;;;;;;;-5.63;40.48;100678.00;4880364;29;19923;-64
2022/03/11 05:18:26;;;;;;;;;;;;;;;-5.46;39.94;100665.72;4910120;29;19985;-63
2022/03/11 05:20:52;;;;;;;;;;;;;;;-5.28;39.30;100669.63;4916219;29;20026;-65
2022/03/11 05:23:18;;;;;;;;;;;;;;;-5.25;38.95;100674.59;4898760;29;19931;-59
2022/03/11 05:25:44;;;;;;;;;;;;;;;-5.25;39.16;100675.41;4910887;29;19977;-58
2022/03/11 05:28:11;;;;;;;;;;;;;;;-5.00;39.39;100671.13;4883741;29;19931;-61
2022/03/11 05:30:36;;;;;;;;;;;;;;;-4.78;38.12;100674.84;4898705;29;19927;-60
2022/03/11 05:33:02;;;;;;;;;;;;;;;-4.77;38.57;100674.72;4903117;29;19994;-64
2022/03/11 05:35:28;;;;;;;;;;;;;;;-4.47;37.92;100671.75;4903119;29;20142;-61
2022/03/11 05:37:53;;;;;;;;;;;;;;;-4.36;37.38;100665.81;4910066;29;20503;-62
2022/03/11 05:40:19;;;;;;;;;;;;;;;-4.37;37.28;100662.41;4898564;29;19935;-61
2022/03/11 05:42:44;;;;;;;;;;;;;;;-4.26;37.28;100664.22;4903194;29;19978;-59
2022/03/11 05:45:10;;;;;;;;;;;;;;;-4.03;36.32;100654.78;4913867;29;20018;-61
2022/03/11 05:47:50;;;;;;;;;;;;;;;-3.92;36.82;100659.97;4913736;29;20064;-58
2022/03/11 05:50:21;;;;;;;;;;;;;;;-3.90;36.56;100659.88;4861657;29;19927;-61
2022/03/11 05:52:49;;;;;;;;;;;;;;;-3.80;35.77;100662.63;4910966;29;19931;-60
2022/03/11 05:55:15;;;;;;;;;;;;;;;-3.62;35.42;100652.63;4901046;29;19934;-60
2022/03/11 05:57:40;;;;;;;;;;;;;;;-3.69;35.42;100653.09;4897136;29;20286;-62
2022/03/11 06:00:06;;;;;;;;;;;;;;;-3.63;34.92;100646.63;4909735;29;19930;-60
2022/03/11 06:02:39;;;;;;;;;;;;;;;-3.69;35.03;100652.28;4912215;29;19937;-62
2022/03/11 06:05:04;;;;;;;;;;;;;;;-3.71;35.71;100647.19;4903060;29;19934;-60
2022/03/11 06:07:30;;;;;;;;;;;;;;;-3.66;35.11;100652.06;4892824;29;20378;-62
2022/03/11 06:09:55;;;;;;;;;;;;;;;-3.74;35.13;100649.19;4900968;29;19931;-62
2022/03/11 06:12:21;;;;;;;;;;;;;;;-3.79;34.57;100641.78;4911721;29;19938;-64
2022/03/11 06:14:47;;;;;;;;;;;;;;;-3.81;34.80;100643.66;4906282;29;20026;-62
2022/03/11 06:17:12;;;;;;;;;;;;;;;-3.72;34.90;100642.16;4893442;29;19940;-63
2022/03/11 06:19:38;;;;;;;;;;;;;;;-3.67;35.31;100646.06;4893156;29;19924;-61
2022/03/11 06:22:04;;;;;;;;;;;;;;;-3.46;34.62;100648.78;4891612;29;19931;-61
2022/03/11 06:24:30;;;;;;;;;;;;;;;-3.34;33.66;100644.44;4893103;29;20074;-61
2022/03/11 06:26:55;;;;;;;;;;;;;;;-3.21;34.06;100647.75;4894353;29;20020;-62
2022/03/11 06:29:21;;;;;;;;;;;;;;;-3.10;33.48;100644.31;4894147;29;20408;-66
2022/03/11 06:31:46;;;;;;;;;;;;;;;-3.13;33.77;100638.56;4892335;29;19927;-64
2022/03/11 06:34:12;;;;;;;;;;;;;;;-3.15;34.01;100649.03;4892155;29;19927;-64
2022/03/11 06:36:37;;;;;;;;;;;;;;;-3.07;34.27;100644.09;4891775;29;19934;-64
2022/03/11 06:39:07;;;;;;;;;;;;;;;-3.16;34.23;100649.16;4877051;29;20394;-61
2022/03/11 06:41:33;;;;;;;;;;;;;;;-3.13;34.31;100647.16;4899164;29;19928;-63
2022/03/11 06:43:58;;;;;;;;;;;;;;;-3.07;34.22;100643.28;4893290;29;19954;-63
2022/03/11 06:46:24;;;;;;;;;;;;;;;-3.22;34.35;100640.91;4897670;29;20017;-63
2022/03/11 06:48:50;;;;;;;;;;;;;;;-3.29;33.92;100642.34;4891074;29;20358;-62
2022/03/11 06:51:16;;;;;;;;;;;;;;;-3.27;33.82;100635.25;4891965;29;20083;-62
2022/03/11 06:53:44;;;;;;;;;;;;;;;-3.24;33.63;100637.59;4894866;29;20203;-60
2022/03/11 06:56:09;;;;;;;;;;;;;;;-3.28;33.40;100632.78;4902823;29;19983;-61
2022/03/11 06:58:35;;;;;;;;;;;;;;;-3.34;34.68;100628.06;4898098;29;19936;-63
2022/03/11 07:01:01;;;;;;;;;;;;;;;-3.40;34.02;100621.56;4900188;29;20356;-63
2022/03/11 07:03:26;;;;;;;;;;;;;;;-3.33;34.09;100620.16;4910342;29;20021;-66
2022/03/11 07:05:52;;;;;;;;;;;;;;;-3.33;35.63;100617.56;4914967;29;19927;-63
2022/03/11 07:08:18;;;;;;;;;;;;;;;-3.14;34.95;100621.34;4910477;29;19975;-63
2022/03/11 07:10:43;;;;;;;;;;;;;;;-3.03;34.60;100616.13;4903529;29;20022;-64
2022/03/11 07:13:09;;;;;;;;;;;;;;;-2.96;34.36;100609.53;4912002;29;19927;-64
2022/03/11 07:15:35;;;;;;;;;;;;;;;-2.88;34.10;100606.31;4913939;29;20149;-64
2022/03/11 07:18:00;;;;;;;;;;;;;;;-2.79;33.78;100611.63;4912399;29;19962;-63
2022/03/11 07:20:26;;;;;;;;;;;;;;;-2.71;33.97;100607.59;4903133;29;20382;-63
2022/03/11 07:22:51;;;;;;;;;;;;;;;-2.71;33.29;100608.41;4897041;29;19931;-63
2022/03/11 07:25:17;;;;;;;;;;;;;;;-2.72;33.21;100604.19;4913438;29;19926;-64
2022/03/11 07:27:45;;;;;;;;;;;;;;;-2.61;33.08;100603.34;4901548;29;19986;-66
2022/03/11 07:30:11;;;;;;;;;;;;;;;-2.52;33.18;100597.41;4893535;29;19931;-63
2022/03/11 07:32:40;;;;;;;;;;;;;;;-2.47;32.11;100597.03;4895814;29;19938;-63
2022/03/11 07:35:08;;;;;;;;;;;;;;;-2.54;32.21;100594.09;4894403;29;19931;-63
2022/03/11 07:37:35;;;;;;;;;;;;;;;-2.46;31.56;100583.94;4877001;29;19939;-62
2022/03/11 07:40:00;;;;;;;;;;;;;;;-2.36;31.67;100574.44;4892802;29;20019;-63
2022/03/11 07:42:29;;;;;;;;;;;;;;;-2.36;31.04;100571.84;4888949;29;19954;-64
2022/03/11 07:44:55;;;;;;;;;;;;;;;-2.32;30.47;100577.63;4909912;29;20364;-65
2022/03/11 07:47:22;;;;;;;;;;;;;;;-2.22;31.07;100575.91;4878912;29;20319;-62
2022/03/11 07:49:47;;;;;;;;;;;;;;;-2.13;31.29;100576.94;4896243;29;20489;-63
2022/03/11 07:52:14;;;;;;;;;;;;;;;-2.08;30.76;100569.59;4898302;29;20022;-63
2022/03/11 07:54:41;;;;;;;;;;;;;;;-1.96;30.65;100571.16;4903398;29;20389;-62
2022/03/11 07:57:06;;;;;;;;;;;;;;;-1.76;30.08;100568.69;4898718;29;19932;-64
2022/03/11 07:59:33;;;;;;;;;;;;;;;-1.56;29.85;100564.38;4912040;29;19927;-61
2022/03/11 08:01:59;;;;;;;;;;;;;;;-1.32;28.38;100562.31;4914064;29;20046;-64
2022/03/11 08:04:26;;;;;;;;;;;;;;;-1.16;28.90;100562.63;4879515;29;20293;-65
2022/03/11 08:06:53;;;;;;;;;;;;;;;-1.09;28.88;100560.31;4895384;29;19931;-64
2022/03/11 08:09:19;;;;;;;;;;;;;;;-0.99;28.42;100563.78;4911387;29;20515;-63
2022/03/11 08:11:44;;;;;;;;;;;;;;;-0.99;28.67;100555.97;4912363;29;20025;-62
2022/03/11 08:14:11;;;;;;;;;;;;;;;-0.99;29.01;100555.97;4910889;29;19932;-62
2022/03/11 08:16:37;;;;;;;;;;;;;;;-1.07;28.77;100555.81;4909244;29;19927;-63
2022/03/11 08:19:03;;;;;;;;;;;;;;;-1.04;29.25;100555.53;4911765;29;19938;-64
2022/03/11 08:21:28;;;;;;;;;;;;;;;-0.82;29.04;100562.31;4911404;29;19942;-65
2022/03/11 08:23:54;;;;;;;;;;;;;;;-0.65;29.24;100559.97;4910484;29;19931;-64
2022/03/11 08:26:20;;;;;;;;;;;;;;;-0.48;29.06;100547.09;4900722;29;19934;-64
2022/03/11 08:28:45;;;;;;;;;;;;;;;-0.31;28.67;100555.19;4907860;29;20456;-63
2022/03/11 08:31:11;;;;;;;;;;;;;;;-0.25;28.81;100542.44;4911975;29;20102;-63
2022/03/11 08:33:39;;;;;;;;;;;;;;;-0.27;28.86;100544.34;4910437;29;20349;-65
2022/03/11 08:36:06;;;;;;;;;;;;;;;-0.38;28.94;100547.13;4911367;29;19927;-62
2022/03/11 08:38:31;;;;;;;;;;;;;;;-0.58;29.62;100548.88;4908710;29;19943;-62
2022/03/11 08:40:57;;;;;;;;;;;;;;;-0.77;29.24;100541.88;4875901;29;19927;-63
2022/03/11 08:43:23;;;;;;;;;;;;;;;-0.80;29.06;100539.53;4910836;29;20022;-61
2022/03/11 08:45:48;;;;;;;;;;;;;;;-0.84;29.14;100543.38;4909012;29;19926;-62
2022/03/11 08:48:14;;;;;;;;;;;;;;;-1.02;28.86;100538.00;4909048;29;19931;-62
2022/03/11 08:50:40;;;;;;;;;;;;;;;-1.06;29.19;100528.84;4910495;29;19927;-61
2022/03/11 08:53:05;;;;;;;;;;;;;;;-1.10;28.94;100526.63;4912311;29;19942;-61
2022/03/11 08:55:31;;;;;;;;;;;;;;;-1.09;29.08;100529.09;4910489;29;20022;-62
2022/03/11 08:57:56;;;;;;;;;;;;;;;-1.17;28.24;100521.97;4911769;29;19938;-63
2022/03/11 09:00:23;;;;;;;;;;;;;;;-1.21;28.36;100517.16;4910607;29;19927;-63
2022/03/11 09:02:49;;;;;;;;;;;;;;;-1.28;28.42;100510.84;4909564;29;19954;-63
2022/03/11 09:05:17;;;;;;;;;;;;;;;-1.22;27.91;100513.72;4911472;29;20400;-62
2022/03/11 09:07:43;;;;;;;;;;;;;;;-1.11;27.82;100506.78;4911478;29;19931;-64
2022/03/11 09:10:12;;;;;;;;;;;;;;;-1.19;27.29;100504.84;4910606;29;20376;-66
2022/03/11 09:12:39;;;;;;;;;;;;;;;-1.15;25.87;100504.44;4909885;29;19931;-66
2022/03/11 09:15:05;;;;;;;;;;;;;;;-1.09;25.45;100503.06;4911060;29;19946;-63
2022/03/11 09:17:31;;;;;;;;;;;;;;;-1.11;24.68;100501.56;4909433;29;19950;-64
2022/03/11 09:19:58;;;;;;;;;;;;;;;-1.08;24.67;100498.69;4910000;29;19931;-62
2022/03/11 09:22:25;;;;;;;;;;;;;;;-1.09;24.25;100490.06;4910180;29;19958;-61
2022/03/11 09:24:51;;;;;;;;;;;;;;;-1.12;24.69;100486.91;4909440;29;20405;-62
2022/03/11 09:27:18;;;;;;;;;;;;;;;-1.19;24.49;100487.44;4910293;29;19938;-62
2022/03/11 09:29:44;;;;;;;;;;;;;;;-1.13;25.21;100482.66;4911203;29;20376;-63
2022/03/11 09:32:10;;;;;;;;;;;;;;;-1.19;24.44;100484.03;4911968;29;19931;-63
2022/03/11 09:34:37;;;;;;;;;;;;;;;-1.21;25.12;100478.94;4911158;29;19934;-62
2022/03/11 09:37:03;;;;;;;;;;;;;;;-1.15;25.67;100470.63;4910015;29;20507;-62
2022/03/11 09:39:29;;;;;;;;;;;;;;;-1.13;25.83;100473.06;4908648;29;19926;-62
2022/03/11 09:41:54;;;;;;;;;;;;;;;-1.13;26.30;100470.47;4910138;29;19931;-65
2022/03/11 09:44:20;;;;;;;;;;;;;;;-0.99;26.60;100472.69;4910003;29;20018;-64
2022/03/11 09:46:46;;;;;;;;;;;;;;;-0.75;26.39;100461.84;4909911;29;19931;-62
2022/03/11 09:49:12;;;;;;;;;;;;;;;-0.61;25.97;100463.22;4908703;29;19931;-64
2022/03/11 09:51:40;;;;;;;;;;;;;;;-0.57;25.74;100450.75;4910260;29;20293;-62
2022/03/11 09:54:06;;;;;;;;;;;;;;;-0.68;26.61;100459.50;4909444;29;19935;-62
2022/03/11 09:56:34;;;;;;;;;;;;;;;-0.75;26.54;100448.03;4910347;29;20408;-63
2022/03/11 09:58:59;;;;;;;;;;;;;;;-0.66;27.39;100448.97;4910456;29;19931;-63
2022/03/11 10:01:25;;;;;;;;;;;;;;;-0.66;26.25;100451.59;4906425;29;19952;-66
2022/03/11 10:03:50;;;;;;;;;;;;;;;-0.74;26.54;100449.66;4902825;29;19931;-64
2022/03/11 10:06:16;;;;;;;;;;;;;;;-0.82;26.93;100447.75;4910826;29;19986;-64
2022/03/11 10:08:46;;;;;;;;;;;;;;;-0.72;27.12;100445.13;4909968;29;19938;-64
2022/03/11 10:11:19;;;;;;;;;;;;;;;-0.72;26.12;100445.13;4877739;29;19927;-65
2022/03/11 10:13:45;;;;;;;;;;;;;;;-0.67;26.43;100439.53;4897811;29;19931;-65
2022/03/11 10:16:23;;;;;;;;;;;;;;;-0.72;26.23;100424.31;4910734;29;19934;-64
2022/03/11 10:19:06;;;;;;;;;;;;;;;-0.49;27.07;100419.63;4908008;29;19923;-65
2022/03/11 10:21:51;;;;;;;;;;;;;;;-0.45;25.65;100420.97;4858844;29;20011;-66
2022/03/11 10:24:21;;;;;;;;;;;;;;;-0.48;26.16;100414.25;4900698;29;19978;-66
2022/03/11 10:26:52;;;;;;;;;;;;;;;-0.54;26.09;100409.59;4904742;29;19935;-64
2022/03/11 10:29:18;;;;;;;;;;;;;;;-0.54;26.49;100406.19;4889477;29;19954;-65
2022/03/11 10:31:45;;;;;;;;;;;;;;;-0.58;26.18;100408.25;4911852;29;20014;-65
2022/03/11 10:34:24;;;;;;;;;;;;;;;-0.60;26.00;100399.75;4910807;29;19963;-65
2022/03/11 10:36:50;;;;;;;;;;;;;;;-0.50;26.89;100387.53;4901715;29;20416;-64
2022/03/11 10:39:20;;;;;;;;;;;;;;;-0.37;26.81;100389.84;4882009;29;19931;-66
2022/03/11 10:41:53;;;;;;;;;;;;;;;-0.28;26.26;100388.97;4890699;29;20029;-61
2022/03/11 10:44:22;;;;;;;;;;;;;;;-0.21;27.02;100380.59;4915499;29;19926;-64
2022/03/11 10:46:48;;;;;;;;;;;;;;;-0.23;27.33;100388.56;4909271;29;19928;-63
2022/03/11 10:49:24;;;;;;;;;;;;;;;-0.21;27.38;100375.38;4895570;29;20878;-64
2022/03/11 10:51:51;;;;;;;;;;;;;;;-0.25;26.56;100373.06;4882166;29;20160;-62
2022/03/11 10:54:19;;;;;;;;;;;;;;;-0.16;26.98;100362.75;4882199;29;19935;-59
2022/03/11 10:56:45;;;;;;;;;;;;;;;-0.15;27.34;100365.19;4877541;29;19979;-63
2022/03/11 10:59:29;;;;;;;;;;;;;;;-0.07;27.26;100361.88;4878461;29;19931;-65
2022/03/11 11:01:55;;;;;;;;;;;;;;;-0.07;27.23;100354.06;4894544;29;20326;-62
2022/03/11 11:04:22;;;;;;;;;;;;;;;-0.13;27.40;100342.41;4893099;29;19927;-63
2022/03/11 11:06:47;;;;;;;;;;;;;;;-0.08;27.25;100339.38;4882073;29;19934;-64
2022/03/11 11:09:13;;;;;;;;;;;;;;;0.03;27.21;100333.13;4866091;29;20408;-64
2022/03/11 11:11:40;;;;;;;;;;;;;;;0.05;27.41;100326.00;4897232;29;19935;-63
2022/03/11 11:14:07;;;;;;;;;;;;;;;0.11;26.83;100322.81;4864694;29;19949;-62
2022/03/11 11:16:42;;;;;;;;;;;;;;;0.10;27.13;100316.78;4894293;29;19928;-62
2022/03/11 11:19:08;;;;;;;;;;;;;;;0.19;27.45;100313.28;4895153;29;19987;-61
2022/03/11 11:21:42;;;;;;;;;;;;;;;0.19;26.83;100305.47;4896254;29;19928;-62
2022/03/11 11:24:18;;;;;;;;;;;;;;;0.19;26.79;100291.63;4879490;29;19931;-63
2022/03/11 11:26:48;;;;;;;;;;;;;;;0.16;26.46;100287.50;4862454;29;19927;-62
2022/03/11 11:29:18;;;;;;;;;;;;;;;0.02;27.06;100288.00;4865882;29;19970;-62
2022/03/11 11:31:44;;;;;;;;;;;;;;;0.12;26.47;100286.19;4897636;29;20449;-63
2022/03/11 11:34:29;;;;;;;;;;;;;;;0.13;26.88;100279.16;4897097;29;19927;-64
2022/03/11 11:36:55;;;;;;;;;;;;;;;0.14;26.34;100280.81;4897137;29;19938;-63
2022/03/11 11:39:23;;;;;;;;;;;;;;;0.19;26.51;100279.41;4865259;29;19947;-62
2022/03/11 11:41:53;;;;;;;;;;;;;;;0.15;27.07;100272.03;4895348;29;19932;-63
2022/03/11 11:44:19;;;;;;;;;;;;;;;0.20;27.13;100277.59;4897683;29;20373;-63
2022/03/11 11:47:04;;;;;;;;;;;;;;;0.15;26.69;100275.44;4897579;29;19934;-65
2022/03/11 11:49:40;;;;;;;;;;;;;;;0.27;26.70;100272.63;4902879;29;19931;-60
2022/03/11 11:52:08;;;;;;;;;;;;;;;0.32;26.43;100263.38;4907933;29;19935;-61
2022/03/11 11:54:35;;;;;;;;;;;;;;;0.39;25.97;100261.81;4887104;29;19927;-65
2022/03/11 11:57:01;;;;;;;;;;;;;;;0.42;26.26;100252.88;4912827;29;19931;-63
2022/03/11 11:59:35;;;;;;;;;;;;;;;0.44;26.77;100254.38;4914099;29;20071;-63
2022/03/11 12:02:02;;;;;;;;;;;;;;;0.55;26.68;100244.66;4898040;29;19939;-62
2022/03/11 12:04:34;;;;;;;;;;;;;;;0.57;26.48;100242.72;4912025;29;19926;-63
2022/03/11 12:07:00;;;;;;;;;;;;;;;0.59;27.57;100244.22;4913904;29;19931;-64
2022/03/11 12:09:38;;;;;;;;;;;;;;;0.67;26.56;100239.03;4910805;29;19931;-63
2022/03/11 12:12:07;;;;;;;;;;;;;;;0.73;26.39;100229.78;4893493;29;20358;-62
2022/03/11 12:14:33;;;;;;;;;;;;;;;0.77;26.59;100227.69;4903290;29;19927;-61
2022/03/11 12:17:03;;;;;;;;;;;;;;;0.76;26.84;100233.88;4906048;29;20014;-62
2022/03/11 12:19:46;;;;;;;;;;;;;;;0.78;27.17;100221.50;4895483;29;19934;-62
2022/03/11 12:22:31;;;;;;;;;;;;;;;0.71;27.25;100208.25;4896518;29;19986;-61
2022/03/11 12:25:01;;;;;;;;;;;;;;;0.72;27.13;100206.47;4905065;29;20286;-61
2022/03/11 12:27:45;;;;;;;;;;;;;;;0.78;27.22;100198.00;4885745;29;20457;-62
2022/03/11 12:30:11;;;;;;;;;;;;;;;0.82;26.63;100194.91;4894627;29;20051;-61
2022/03/11 12:32:38;;;;;;;;;;;;;;;0.85;26.57;100192.03;4894089;29;19935;-62
2022/03/11 12:35:05;;;;;;;;;;;;;;;0.81;27.30;100190.69;4863101;29;19923;-62
2022/03/11 12:37:32;;;;;;;;;;;;;;;0.82;26.02;100181.06;4887267;29;20294;-63